Midland, Georgia
Current Conditions -  °F | °C
As of 2:51 PM on Monday 24 Nov 2014 (Local Time) from KCSG Reporting Station
Clear Clear  
Wind Chill: 77°   Ceiling: Unl
Heat Index: 79°   Visibility: 10mi
Dew Point: 56°   Wind: 6mph
Humidity: 48%   Direction: 270°W
Pressure: 29.79"   Gusts: NA
Location:  32.57°N, 84.83°W
Report Text: KCSG 241951Z 27005KT 10SM CLR 25/13 A2979 RMK AO2 SLP085 T02500133
Loading
Personal Weather Stations






























Interactive Weather Map New forecast layout! Learn more

10-Day Weather Forecast

Advertisements
Track Severe Weather on mobile